Dresden, Kansas
Current Conditions -  °F | °C
As of 9:53 AM on Sunday 25 Jan 2015 (Local Time) from KHLC Reporting Station
Clear Clear  
Wind Chill: 36°   Ceiling: Unl
Heat Index: 44°   Visibility: 10mi
Dew Point: 26°   Wind: 21mph
Humidity: 49%   Direction: 330°NNW
Pressure: 30.07"   Gusts: 33mph
Location:  39.62°N, 100.42°W
Report Text: KHLC 251553Z AUTO 33018G29KT 10SM CLR 07/M03 A3007 RMK AO2 PK WND 33030/1536 SLP185 T00671033
Loading
Personal Weather Stations






























Interactive Weather Map New forecast layout! Learn more

10-Day Weather Forecast

Advertisements
Track Severe Weather on mobile